sensor_id;sensor_type;location;lat;lon;timestamp;pressure;altitude;pressure_sealevel;temperature;humidity
9740;BME280;4909;42.680;26.324;2022-09-30T00:01:51;98182.94;;;19.51;85.66
9740;BME280;4909;42.680;26.324;2022-09-30T00:04:21;98181.03;;;19.42;86.06
9740;BME280;4909;42.680;26.324;2022-09-30T00:06:49;98151.13;;;19.36;86.01
9740;BME280;4909;42.680;26.324;2022-09-30T00:09:16;98172.72;;;19.45;86.23
9740;BME280;4909;42.680;26.324;2022-09-30T00:11:44;98182.53;;;19.56;85.89
9740;BME280;4909;42.680;26.324;2022-09-30T00:14:14;98170.78;;;19.57;85.42
9740;BME280;4909;42.680;26.324;2022-09-30T00:16:42;98192.03;;;19.50;86.08
9740;BME280;4909;42.680;26.324;2022-09-30T00:19:09;98189.06;;;19.53;85.63
9740;BME280;4909;42.680;26.324;2022-09-30T00:21:38;98187.13;;;19.65;84.61
9740;BME280;4909;42.680;26.324;2022-09-30T00:24:05;98188.09;;;19.64;85.03
9740;BME280;4909;42.680;26.324;2022-09-30T00:26:33;98196.16;;;19.55;85.17
9740;BME280;4909;42.680;26.324;2022-09-30T00:29:00;98184.94;;;19.49;85.37
9740;BME280;4909;42.680;26.324;2022-09-30T00:31:29;98168.03;;;19.27;85.97
9740;BME280;4909;42.680;26.324;2022-09-30T00:33:57;98194.47;;;19.42;86.23
9740;BME280;4909;42.680;26.324;2022-09-30T00:36:40;98187.03;;;19.46;86.00
9740;BME280;4909;42.680;26.324;2022-09-30T00:39:10;98196.19;;;19.43;86.15
9740;BME280;4909;42.680;26.324;2022-09-30T00:41:37;98198.22;;;19.51;85.59
9740;BME280;4909;42.680;26.324;2022-09-30T00:44:44;98196.66;;;19.48;85.50
9740;BME280;4909;42.680;26.324;2022-09-30T00:50:28;98195.84;;;19.37;86.03
9740;BME280;4909;42.680;26.324;2022-09-30T00:53:04;98194.75;;;19.39;85.92
9740;BME280;4909;42.680;26.324;2022-09-30T00:55:40;98196.78;;;19.47;85.13
9740;BME280;4909;42.680;26.324;2022-09-30T00:58:11;98195.63;;;19.40;85.22
9740;BME280;4909;42.680;26.324;2022-09-30T01:00:41;98205.59;;;19.28;85.98
9740;BME280;4909;42.680;26.324;2022-09-30T01:03:08;98216.94;;;19.32;85.91
9740;BME280;4909;42.680;26.324;2022-09-30T01:05:35;98224.19;;;19.31;85.75
9740;BME280;4909;42.680;26.324;2022-09-30T01:08:07;98223.31;;;19.10;86.44
9740;BME280;4909;42.680;26.324;2022-09-30T01:10:34;98224.97;;;19.01;86.79
9740;BME280;4909;42.680;26.324;2022-09-30T01:13:03;98223.91;;;18.93;87.44
9740;BME280;4909;42.680;26.324;2022-09-30T01:15:39;98228.75;;;18.78;88.02
9740;BME280;4909;42.680;26.324;2022-09-30T01:18:18;98228.03;;;18.76;88.46
9740;BME280;4909;42.680;26.324;2022-09-30T01:21:14;98227.91;;;18.78;88.29
9740;BME280;4909;42.680;26.324;2022-09-30T01:24:06;98228.22;;;18.84;88.33
9740;BME280;4909;42.680;26.324;2022-09-30T01:27:11;98228.41;;;18.72;89.45
9740;BME280;4909;42.680;26.324;2022-09-30T01:35:58;98232.13;;;18.91;88.43
9740;BME280;4909;42.680;26.324;2022-09-30T01:38:40;98236.16;;;18.86;89.65
9740;BME280;4909;42.680;26.324;2022-09-30T01:41:17;98237.50;;;18.91;88.51
9740;BME280;4909;42.680;26.324;2022-09-30T01:43:55;98237.88;;;18.87;88.87
9740;BME280;4909;42.680;26.324;2022-09-30T01:46:29;98240.56;;;18.87;88.75
9740;BME280;4909;42.680;26.324;2022-09-30T01:49:07;98236.44;;;18.83;88.98
9740;BME280;4909;42.680;26.324;2022-09-30T01:51:40;98247.31;;;18.81;89.18
9740;BME280;4909;42.680;26.324;2022-09-30T01:54:12;98259.63;;;18.84;89.21
9740;BME280;4909;42.680;26.324;2022-09-30T01:56:45;98254.25;;;18.84;88.70
9740;BME280;4909;42.680;26.324;2022-09-30T01:59:17;98256.72;;;18.87;88.31
9740;BME280;4909;42.680;26.324;2022-09-30T02:01:51;98258.34;;;18.78;88.47
9740;BME280;4909;42.680;26.324;2022-09-30T02:04:23;98254.81;;;18.66;89.29
9740;BME280;4909;42.680;26.324;2022-09-30T02:06:56;98251.28;;;18.66;89.48
9740;BME280;4909;42.680;26.324;2022-09-30T02:09:28;98255.97;;;18.85;88.63
9740;BME280;4909;42.680;26.324;2022-09-30T02:11:59;98254.44;;;18.71;88.75
9740;BME280;4909;42.680;26.324;2022-09-30T02:14:32;98245.03;;;18.65;89.42
9740;BME280;4909;42.680;26.324;2022-09-30T02:17:06;98251.88;;;18.70;89.04
9740;BME280;4909;42.680;26.324;2022-09-30T02:19:38;98255.19;;;18.73;89.45
9740;BME280;4909;42.680;26.324;2022-09-30T02:22:13;98225.75;;;18.49;89.43
9740;BME280;4909;42.680;26.324;2022-09-30T02:24:42;98247.03;;;18.63;89.90
9740;BME280;4909;42.680;26.324;2022-09-30T02:27:27;98263.44;;;18.81;88.57
9740;BME280;4909;42.680;26.324;2022-09-30T02:29:57;98259.78;;;18.82;88.55
9740;BME280;4909;42.680;26.324;2022-09-30T02:32:29;98259.06;;;18.69;88.81
9740;BME280;4909;42.680;26.324;2022-09-30T02:35:01;98253.75;;;18.58;89.95
9740;BME280;4909;42.680;26.324;2022-09-30T02:37:34;98254.47;;;18.60;89.82
9740;BME280;4909;42.680;26.324;2022-09-30T02:40:06;98253.63;;;18.48;90.01
9740;BME280;4909;42.680;26.324;2022-09-30T02:42:35;98254.25;;;18.41;89.90
9740;BME280;4909;42.680;26.324;2022-09-30T02:45:06;98250.94;;;18.48;89.45
9740;BME280;4909;42.680;26.324;2022-09-30T02:47:45;98243.59;;;18.50;89.39
9740;BME280;4909;42.680;26.324;2022-09-30T02:50:17;98245.81;;;18.45;89.54
9740;BME280;4909;42.680;26.324;2022-09-30T02:52:58;98254.63;;;18.36;89.64
9740;BME280;4909;42.680;26.324;2022-09-30T02:55:30;98250.97;;;18.37;89.85
9740;BME280;4909;42.680;26.324;2022-09-30T02:58:03;98255.78;;;18.22;90.95
9740;BME280;4909;42.680;26.324;2022-09-30T03:00:36;98260.38;;;18.32;91.20
9740;BME280;4909;42.680;26.324;2022-09-30T03:03:08;98257.00;;;18.30;90.95
9740;BME280;4909;42.680;26.324;2022-09-30T03:05:37;98259.81;;;18.17;91.64
9740;BME280;4909;42.680;26.324;2022-09-30T03:08:06;98257.72;;;18.20;91.41
9740;BME280;4909;42.680;26.324;2022-09-30T03:10:32;98258.06;;;18.27;91.28
9740;BME280;4909;42.680;26.324;2022-09-30T03:13:17;98258.81;;;18.29;90.81
9740;BME280;4909;42.680;26.324;2022-09-30T03:15:57;98257.97;;;18.29;91.29
9740;BME280;4909;42.680;26.324;2022-09-30T03:18:39;98263.09;;;18.20;91.31
9740;BME280;4909;42.680;26.324;2022-09-30T03:21:20;98261.25;;;18.21;91.88
9740;BME280;4909;42.680;26.324;2022-09-30T03:24:24;98258.34;;;18.24;91.66
9740;BME280;4909;42.680;26.324;2022-09-30T03:26:58;98252.91;;;18.35;91.13
9740;BME280;4909;42.680;26.324;2022-09-30T03:29:35;98252.22;;;18.22;91.50
9740;BME280;4909;42.680;26.324;2022-09-30T03:32:14;98255.50;;;18.37;91.29
9740;BME280;4909;42.680;26.324;2022-09-30T03:35:03;98262.22;;;18.53;90.36
9740;BME280;4909;42.680;26.324;2022-09-30T03:37:42;98254.88;;;18.44;91.06
9740;BME280;4909;42.680;26.324;2022-09-30T03:40:21;98257.59;;;18.33;91.83
9740;BME280;4909;42.680;26.324;2022-09-30T03:42:54;98260.50;;;18.30;92.14
9740;BME280;4909;42.680;26.324;2022-09-30T03:45:26;98262.97;;;18.33;92.16
9740;BME280;4909;42.680;26.324;2022-09-30T03:47:58;98264.91;;;18.31;92.02
9740;BME280;4909;42.680;26.324;2022-09-30T03:50:28;98272.97;;;18.31;92.26
9740;BME280;4909;42.680;26.324;2022-09-30T03:52:56;98267.75;;;18.30;91.78
9740;BME280;4909;42.680;26.324;2022-09-30T03:55:25;98284.47;;;18.22;91.64
9740;BME280;4909;42.680;26.324;2022-09-30T03:57:52;98283.00;;;18.18;91.29
9740;BME280;4909;42.680;26.324;2022-09-30T04:00:19;98281.88;;;18.20;91.07
9740;BME280;4909;42.680;26.324;2022-09-30T04:02:46;98285.06;;;18.25;90.72
9740;BME280;4909;42.680;26.324;2022-09-30T04:05:13;98286.06;;;18.24;90.56
9740;BME280;4909;42.680;26.324;2022-09-30T04:07:40;98284.69;;;18.30;90.78
9740;BME280;4909;42.680;26.324;2022-09-30T04:10:08;98259.19;;;18.24;90.67
9740;BME280;4909;42.680;26.324;2022-09-30T04:12:36;98282.63;;;18.34;90.92
9740;BME280;4909;42.680;26.324;2022-09-30T04:15:03;98291.78;;;18.31;91.07
9740;BME280;4909;42.680;26.324;2022-09-30T04:17:30;98292.63;;;18.32;91.18
9740;BME280;4909;42.680;26.324;2022-09-30T04:19:57;98296.06;;;18.34;91.03
9740;BME280;4909;42.680;26.324;2022-09-30T04:22:24;98297.63;;;18.36;90.81
9740;BME280;4909;42.680;26.324;2022-09-30T04:24:50;98298.00;;;18.32;90.94
9740;BME280;4909;42.680;26.324;2022-09-30T04:27:17;98299.22;;;18.39;91.00
9740;BME280;4909;42.680;26.324;2022-09-30T04:29:45;98293.84;;;18.39;90.80
9740;BME280;4909;42.680;26.324;2022-09-30T04:32:12;98299.69;;;18.44;90.54
9740;BME280;4909;42.680;26.324;2022-09-30T04:34:39;98304.81;;;18.47;90.08
9740;BME280;4909;42.680;26.324;2022-09-30T04:37:06;98313.47;;;18.50;89.89
9740;BME280;4909;42.680;26.324;2022-09-30T04:39:33;98310.06;;;18.59;89.84
9740;BME280;4909;42.680;26.324;2022-09-30T04:42:00;98311.63;;;18.51;90.38
9740;BME280;4909;42.680;26.324;2022-09-30T04:44:27;98309.56;;;18.65;89.08
9740;BME280;4909;42.680;26.324;2022-09-30T04:46:55;98316.19;;;18.61;89.52
9740;BME280;4909;42.680;26.324;2022-09-30T04:49:22;98315.91;;;18.64;89.28
9740;BME280;4909;42.680;26.324;2022-09-30T04:51:49;98317.75;;;18.64;89.33
9740;BME280;4909;42.680;26.324;2022-09-30T04:54:16;98317.50;;;18.67;89.19
9740;BME280;4909;42.680;26.324;2022-09-30T04:56:46;98301.88;;;18.61;89.32
9740;BME280;4909;42.680;26.324;2022-09-30T04:59:13;98325.66;;;18.77;88.95
9740;BME280;4909;42.680;26.324;2022-09-30T05:01:40;98328.25;;;18.67;88.98
9740;BME280;4909;42.680;26.324;2022-09-30T05:04:10;98337.56;;;18.63;89.81
9740;BME280;4909;42.680;26.324;2022-09-30T05:06:37;98331.19;;;18.64;89.67
9740;BME280;4909;42.680;26.324;2022-09-30T05:09:05;98344.09;;;18.81;89.17
9740;BME280;4909;42.680;26.324;2022-09-30T05:11:32;98352.06;;;18.83;89.17
9740;BME280;4909;42.680;26.324;2022-09-30T05:13:59;98342.41;;;18.80;89.41
9740;BME280;4909;42.680;26.324;2022-09-30T05:16:26;98344.75;;;19.05;86.29
9740;BME280;4909;42.680;26.324;2022-09-30T05:18:54;98353.59;;;18.96;88.06
9740;BME280;4909;42.680;26.324;2022-09-30T05:21:22;98355.63;;;19.04;87.96
9740;BME280;4909;42.680;26.324;2022-09-30T05:23:49;98361.16;;;19.02;88.11
9740;BME280;4909;42.680;26.324;2022-09-30T05:26:17;98363.09;;;19.12;88.22
9740;BME280;4909;42.680;26.324;2022-09-30T05:28:43;98362.69;;;19.16;88.19
9740;BME280;4909;42.680;26.324;2022-09-30T05:31:10;98369.34;;;19.01;88.31
9740;BME280;4909;42.680;26.324;2022-09-30T05:33:38;98367.63;;;19.00;88.60
9740;BME280;4909;42.680;26.324;2022-09-30T05:36:08;98382.03;;;19.10;88.77
9740;BME280;4909;42.680;26.324;2022-09-30T05:38:36;98375.88;;;19.19;88.35
9740;BME280;4909;42.680;26.324;2022-09-30T05:41:07;98382.69;;;19.34;87.69
9740;BME280;4909;42.680;26.324;2022-09-30T05:43:36;98376.16;;;19.37;87.48
9740;BME280;4909;42.680;26.324;2022-09-30T05:46:04;98359.44;;;19.33;86.91
9740;BME280;4909;42.680;26.324;2022-09-30T05:48:31;98385.28;;;19.57;87.02
9740;BME280;4909;42.680;26.324;2022-09-30T05:50:58;98385.88;;;19.81;84.96
9740;BME280;4909;42.680;26.324;2022-09-30T05:53:26;98375.66;;;19.75;84.21
9740;BME280;4909;42.680;26.324;2022-09-30T05:55:54;98396.13;;;19.87;84.91
9740;BME280;4909;42.680;26.324;2022-09-30T05:58:21;98391.78;;;19.95;84.64
9740;BME280;4909;42.680;26.324;2022-09-30T06:00:49;98391.44;;;20.10;84.21
9740;BME280;4909;42.680;26.324;2022-09-30T06:03:17;98386.84;;;20.21;83.91
9740;BME280;4909;42.680;26.324;2022-09-30T06:05:44;98391.38;;;20.21;83.39
9740;BME280;4909;42.680;26.324;2022-09-30T06:08:11;98393.06;;;20.43;82.54
9740;BME280;4909;42.680;26.324;2022-09-30T06:10:40;98401.25;;;20.62;82.37
9740;BME280;4909;42.680;26.324;2022-09-30T06:13:09;98411.50;;;20.87;80.83
9740;BME280;4909;42.680;26.324;2022-09-30T06:15:36;98420.91;;;20.93;81.12
9740;BME280;4909;42.680;26.324;2022-09-30T06:18:05;98413.06;;;21.20;79.85
9740;BME280;4909;42.680;26.324;2022-09-30T06:20:33;98414.19;;;21.56;78.10
9740;BME280;4909;42.680;26.324;2022-09-30T06:23:00;98422.69;;;22.09;75.23
9740;BME280;4909;42.680;26.324;2022-09-30T06:25:27;98428.53;;;22.61;72.32
9740;BME280;4909;42.680;26.324;2022-09-30T06:27:54;98417.31;;;22.92;70.57
9740;BME280;4909;42.680;26.324;2022-09-30T06:30:23;98432.06;;;23.25;68.73
9740;BME280;4909;42.680;26.324;2022-09-30T06:32:50;98434.78;;;23.43;67.67
9740;BME280;4909;42.680;26.324;2022-09-30T06:35:18;98418.34;;;23.72;66.07
9740;BME280;4909;42.680;26.324;2022-09-30T06:37:52;98407.28;;;24.09;63.79
9740;BME280;4909;42.680;26.324;2022-09-30T06:40:19;98439.22;;;24.41;63.29
9740;BME280;4909;42.680;26.324;2022-09-30T06:42:46;98444.88;;;24.47;63.21
9740;BME280;4909;42.680;26.324;2022-09-30T06:45:14;98451.91;;;24.40;62.67
9740;BME280;4909;42.680;26.324;2022-09-30T06:47:44;98454.91;;;24.55;62.73
9740;BME280;4909;42.680;26.324;2022-09-30T06:50:15;98452.56;;;24.60;62.19
9740;BME280;4909;42.680;26.324;2022-09-30T06:52:42;98452.94;;;24.65;61.70
9740;BME280;4909;42.680;26.324;2022-09-30T06:55:10;98449.28;;;24.48;62.99
9740;BME280;4909;42.680;26.324;2022-09-30T06:57:37;98457.47;;;24.56;63.13
9740;BME280;4909;42.680;26.324;2022-09-30T07:00:07;98456.22;;;24.77;62.68
9740;BME280;4909;42.680;26.324;2022-09-30T07:02:34;98454.16;;;25.04;60.74
9740;BME280;4909;42.680;26.324;2022-09-30T07:05:03;98456.34;;;25.43;60.16
9740;BME280;4909;42.680;26.324;2022-09-30T07:07:30;98447.44;;;26.07;57.94
9740;BME280;4909;42.680;26.324;2022-09-30T07:09:58;98442.31;;;26.20;57.54
9740;BME280;4909;42.680;26.324;2022-09-30T07:12:25;98443.72;;;26.32;57.03
9740;BME280;4909;42.680;26.324;2022-09-30T07:14:52;98451.50;;;26.52;56.45
9740;BME280;4909;42.680;26.324;2022-09-30T07:17:19;98440.78;;;26.50;55.94
9740;BME280;4909;42.680;26.324;2022-09-30T07:19:46;98437.22;;;26.50;55.31
9740;BME280;4909;42.680;26.324;2022-09-30T07:22:14;98446.38;;;26.65;55.63
9740;BME280;4909;42.680;26.324;2022-09-30T07:24:55;98461.16;;;26.70;54.84
9740;BME280;4909;42.680;26.324;2022-09-30T07:27:22;98464.38;;;26.74;55.01
9740;BME280;4909;42.680;26.324;2022-09-30T07:29:50;98471.00;;;26.96;53.41
9740;BME280;4909;42.680;26.324;2022-09-30T07:32:17;98469.69;;;27.22;53.44
9740;BME280;4909;42.680;26.324;2022-09-30T07:34:44;98463.47;;;27.37;52.57
9740;BME280;4909;42.680;26.324;2022-09-30T07:37:12;98461.31;;;27.63;52.09
9740;BME280;4909;42.680;26.324;2022-09-30T07:39:41;98452.97;;;27.87;51.34
9740;BME280;4909;42.680;26.324;2022-09-30T07:42:09;98464.03;;;28.08;50.43
9740;BME280;4909;42.680;26.324;2022-09-30T07:44:37;98460.16;;;28.11;49.98
9740;BME280;4909;42.680;26.324;2022-09-30T07:47:09;98463.00;;;28.70;47.86
9740;BME280;4909;42.680;26.324;2022-09-30T07:49:37;98467.94;;;29.33;46.32
9740;BME280;4909;42.680;26.324;2022-09-30T07:52:04;98468.97;;;30.25;43.45
9740;BME280;4909;42.680;26.324;2022-09-30T07:54:32;98446.88;;;31.10;40.54
9740;BME280;4909;42.680;26.324;2022-09-30T07:57:02;98463.56;;;31.63;39.00
9740;BME280;4909;42.680;26.324;2022-09-30T07:59:30;98480.22;;;32.28;38.01
9740;BME280;4909;42.680;26.324;2022-09-30T08:01:57;98486.31;;;33.09;35.40
9740;BME280;4909;42.680;26.324;2022-09-30T08:04:25;98480.63;;;32.98;34.05
9740;BME280;4909;42.680;26.324;2022-09-30T08:06:55;98500.44;;;33.39;33.74
9740;BME280;4909;42.680;26.324;2022-09-30T08:09:24;98492.44;;;34.20;32.71
9740;BME280;4909;42.680;26.324;2022-09-30T08:11:51;98500.38;;;34.41;32.06
9740;BME280;4909;42.680;26.324;2022-09-30T08:14:21;98501.34;;;34.78;31.17
9740;BME280;4909;42.680;26.324;2022-09-30T08:16:48;98507.75;;;34.97;31.14
9740;BME280;4909;42.680;26.324;2022-09-30T08:19:17;98499.94;;;35.19;30.76
9740;BME280;4909;42.680;26.324;2022-09-30T08:21:45;98488.81;;;35.01;30.77
9740;BME280;4909;42.680;26.324;2022-09-30T08:24:12;98486.53;;;34.98;31.22
9740;BME280;4909;42.680;26.324;2022-09-30T08:26:39;98489.53;;;35.14;30.62
9740;BME280;4909;42.680;26.324;2022-09-30T08:29:06;98476.53;;;35.58;29.54
9740;BME280;4909;42.680;26.324;2022-09-30T08:31:36;98476.69;;;35.63;29.36
9740;BME280;4909;42.680;26.324;2022-09-30T08:34:03;98491.03;;;35.10;29.68
9740;BME280;4909;42.680;26.324;2022-09-30T08:36:30;98499.94;;;35.19;30.37
9740;BME280;4909;42.680;26.324;2022-09-30T08:38:57;98504.91;;;35.28;29.82
9740;BME280;4909;42.680;26.324;2022-09-30T08:44:25;98500.78;;;34.38;31.36
9740;BME280;4909;42.680;26.324;2022-09-30T08:47:08;98496.84;;;34.84;30.67
9740;BME280;4909;42.680;26.324;2022-09-30T08:49:46;98502.38;;;35.02;30.82
9740;BME280;4909;42.680;26.324;2022-09-30T08:52:19;98508.47;;;34.61;30.73
9740;BME280;4909;42.680;26.324;2022-09-30T08:54:49;98505.00;;;34.72;31.14
9740;BME280;4909;42.680;26.324;2022-09-30T08:57:17;98517.19;;;34.58;31.18
9740;BME280;4909;42.680;26.324;2022-09-30T08:59:46;98508.66;;;34.35;31.67
9740;BME280;4909;42.680;26.324;2022-09-30T09:02:19;98499.47;;;34.10;31.96
9740;BME280;4909;42.680;26.324;2022-09-30T09:04:48;98509.16;;;33.87;32.23
9740;BME280;4909;42.680;26.324;2022-09-30T09:07:25;98510.09;;;33.61;32.78
9740;BME280;4909;42.680;26.324;2022-09-30T09:10:05;98508.69;;;33.39;33.62
9740;BME280;4909;42.680;26.324;2022-09-30T09:12:43;98502.84;;;32.96;34.08
9740;BME280;4909;42.680;26.324;2022-09-30T09:15:21;98510.69;;;32.66;35.05
9740;BME280;4909;42.680;26.324;2022-09-30T09:18:35;98513.16;;;32.22;35.54
9740;BME280;4909;42.680;26.324;2022-09-30T09:21:15;98526.34;;;31.79;37.15
9740;BME280;4909;42.680;26.324;2022-09-30T09:23:45;98514.44;;;31.59;37.60
9740;BME280;4909;42.680;26.324;2022-09-30T09:26:14;98508.38;;;31.35;37.95
9740;BME280;4909;42.680;26.324;2022-09-30T09:28:45;98506.94;;;31.05;39.25
9740;BME280;4909;42.680;26.324;2022-09-30T09:31:16;98506.16;;;30.83;39.64
9740;BME280;4909;42.680;26.324;2022-09-30T09:33:46;98502.75;;;30.53;41.31
9740;BME280;4909;42.680;26.324;2022-09-30T09:36:23;98510.56;;;30.35;41.20
9740;BME280;4909;42.680;26.324;2022-09-30T09:39:02;98502.00;;;30.02;41.58
9740;BME280;4909;42.680;26.324;2022-09-30T09:41:39;98517.53;;;29.80;43.04
9740;BME280;4909;42.680;26.324;2022-09-30T09:44:13;98511.91;;;30.03;42.34
9740;BME280;4909;42.680;26.324;2022-09-30T09:46:47;98509.53;;;30.15;42.00
9740;BME280;4909;42.680;26.324;2022-09-30T09:49:31;98499.53;;;30.29;42.20
9740;BME280;4909;42.680;26.324;2022-09-30T09:55:12;98502.53;;;29.91;41.97
9740;BME280;4909;42.680;26.324;2022-09-30T09:57:41;98503.53;;;29.54;43.99
9740;BME280;4909;42.680;26.324;2022-09-30T10:00:09;98502.34;;;29.42;43.95
9740;BME280;4909;42.680;26.324;2022-09-30T10:03:01;98497.16;;;29.18;44.35
9740;BME280;4909;42.680;26.324;2022-09-30T10:05:30;98510.31;;;29.29;43.98
9740;BME280;4909;42.680;26.324;2022-09-30T10:08:13;98508.38;;;29.23;43.33
9740;BME280;4909;42.680;26.324;2022-09-30T10:10:44;98506.47;;;29.23;43.37
9740;BME280;4909;42.680;26.324;2022-09-30T10:13:16;98500.09;;;29.31;42.79
9740;BME280;4909;42.680;26.324;2022-09-30T10:15:43;98505.44;;;29.39;42.78
9740;BME280;4909;42.680;26.324;2022-09-30T10:18:17;98507.06;;;29.33;42.56
9740;BME280;4909;42.680;26.324;2022-09-30T10:20:51;98501.78;;;29.32;42.88
9740;BME280;4909;42.680;26.324;2022-09-30T10:23:21;98510.16;;;29.45;42.68
9740;BME280;4909;42.680;26.324;2022-09-30T10:25:59;98500.38;;;29.36;42.88
9740;BME280;4909;42.680;26.324;2022-09-30T10:28:30;98496.59;;;29.37;43.63
9740;BME280;4909;42.680;26.324;2022-09-30T10:31:04;98489.13;;;29.46;43.38
9740;BME280;4909;42.680;26.324;2022-09-30T10:33:35;98491.91;;;29.67;42.32
9740;BME280;4909;42.680;26.324;2022-09-30T10:36:11;98486.94;;;29.56;41.69
9740;BME280;4909;42.680;26.324;2022-09-30T10:38:51;98472.81;;;29.23;41.69
9740;BME280;4909;42.680;26.324;2022-09-30T10:41:22;98482.63;;;29.17;42.30
9740;BME280;4909;42.680;26.324;2022-09-30T10:43:51;98483.19;;;29.27;42.69
9740;BME280;4909;42.680;26.324;2022-09-30T10:46:23;98484.53;;;29.02;43.13
9740;BME280;4909;42.680;26.324;2022-09-30T10:48:52;98479.31;;;29.22;42.78
9740;BME280;4909;42.680;26.324;2022-09-30T10:51:31;98478.03;;;29.32;41.54
9740;BME280;4909;42.680;26.324;2022-09-30T10:54:02;98445.41;;;29.02;41.42
9740;BME280;4909;42.680;26.324;2022-09-30T10:56:39;98473.97;;;29.14;42.04
9740;BME280;4909;42.680;26.324;2022-09-30T10:59:13;98471.72;;;29.03;42.75
9740;BME280;4909;42.680;26.324;2022-09-30T11:01:47;98467.44;;;29.00;42.64
9740;BME280;4909;42.680;26.324;2022-09-30T11:04:22;98467.66;;;28.99;43.07
9740;BME280;4909;42.680;26.324;2022-09-30T11:06:58;98465.84;;;28.91;42.83
9740;BME280;4909;42.680;26.324;2022-09-30T11:09:33;98475.66;;;28.85;44.02
9740;BME280;4909;42.680;26.324;2022-09-30T11:12:10;98479.16;;;28.79;43.98
9740;BME280;4909;42.680;26.324;2022-09-30T11:14:44;98476.59;;;28.78;43.38
9740;BME280;4909;42.680;26.324;2022-09-30T11:17:23;98477.78;;;28.61;43.61
9740;BME280;4909;42.680;26.324;2022-09-30T11:19:58;98488.66;;;28.83;43.13
9740;BME280;4909;42.680;26.324;2022-09-30T11:22:38;98489.69;;;28.82;42.93
9740;BME280;4909;42.680;26.324;2022-09-30T11:25:12;98488.72;;;28.61;42.95
9740;BME280;4909;42.680;26.324;2022-09-30T11:27:52;98479.84;;;28.59;43.06
9740;BME280;4909;42.680;26.324;2022-09-30T11:30:25;98479.47;;;28.62;43.25
9740;BME280;4909;42.680;26.324;2022-09-30T11:33:07;98480.59;;;28.67;41.96
9740;BME280;4909;42.680;26.324;2022-09-30T11:35:47;98479.28;;;28.63;42.70
9740;BME280;4909;42.680;26.324;2022-09-30T11:38:41;98488.88;;;28.59;43.79
9740;BME280;4909;42.680;26.324;2022-09-30T11:41:15;98477.50;;;28.56;42.33
9740;BME280;4909;42.680;26.324;2022-09-30T11:43:53;98476.91;;;28.45;42.80
9740;BME280;4909;42.680;26.324;2022-09-30T11:46:52;98468.78;;;28.37;43.69
9740;BME280;4909;42.680;26.324;2022-09-30T11:52:18;98475.16;;;28.30;43.27
9740;BME280;4909;42.680;26.324;2022-09-30T11:55:04;98470.59;;;28.45;43.39
9740;BME280;4909;42.680;26.324;2022-09-30T11:57:40;98470.28;;;28.40;43.42
9740;BME280;4909;42.680;26.324;2022-09-30T12:00:14;98455.97;;;28.38;42.55
9740;BME280;4909;42.680;26.324;2022-09-30T12:02:43;98470.47;;;28.38;42.41
9740;BME280;4909;42.680;26.324;2022-09-30T12:05:17;98468.19;;;28.27;42.95
9740;BME280;4909;42.680;26.324;2022-09-30T12:07:49;98468.69;;;28.31;43.00
9740;BME280;4909;42.680;26.324;2022-09-30T12:10:23;98469.84;;;28.51;42.26
9740;BME280;4909;42.680;26.324;2022-09-30T12:12:55;98470.31;;;28.55;41.72
9740;BME280;4909;42.680;26.324;2022-09-30T12:15:23;98469.09;;;28.57;41.89
9740;BME280;4909;42.680;26.324;2022-09-30T12:17:54;98466.72;;;28.39;41.59
9740;BME280;4909;42.680;26.324;2022-09-30T12:20:27;98462.91;;;28.26;41.97
9740;BME280;4909;42.680;26.324;2022-09-30T12:22:58;98469.97;;;28.20;43.06
9740;BME280;4909;42.680;26.324;2022-09-30T12:25:30;98461.13;;;28.10;42.22
9740;BME280;4909;42.680;26.324;2022-09-30T12:28:06;98453.75;;;27.96;42.96
9740;BME280;4909;42.680;26.324;2022-09-30T12:30:50;98462.16;;;28.17;42.32
9740;BME280;4909;42.680;26.324;2022-09-30T12:33:37;98469.31;;;28.33;41.35
9740;BME280;4909;42.680;26.324;2022-09-30T12:36:32;98461.09;;;28.18;40.90
9740;BME280;4909;42.680;26.324;2022-09-30T12:42:28;98455.56;;;28.03;41.59
9740;BME280;4909;42.680;26.324;2022-09-30T12:48:06;98470.50;;;28.16;41.45
9740;BME280;4909;42.680;26.324;2022-09-30T12:50:40;98458.50;;;28.25;40.71
9740;BME280;4909;42.680;26.324;2022-09-30T12:53:14;98454.34;;;28.06;40.98
9740;BME280;4909;42.680;26.324;2022-09-30T12:55:43;98447.50;;;28.10;41.34
9740;BME280;4909;42.680;26.324;2022-09-30T12:58:20;98467.41;;;28.19;41.28
9740;BME280;4909;42.680;26.324;2022-09-30T13:01:00;98470.91;;;28.13;41.41
9740;BME280;4909;42.680;26.324;2022-09-30T13:03:48;98470.97;;;28.19;40.91
9740;BME280;4909;42.680;26.324;2022-09-30T13:06:16;98469.50;;;28.17;40.80
9740;BME280;4909;42.680;26.324;2022-09-30T13:08:47;98471.06;;;28.11;40.27
9740;BME280;4909;42.680;26.324;2022-09-30T13:11:38;98473.41;;;28.14;39.87
9740;BME280;4909;42.680;26.324;2022-09-30T13:14:29;98475.97;;;27.93;41.01
9740;BME280;4909;42.680;26.324;2022-09-30T13:19:44;98481.75;;;27.90;39.75
9740;BME280;4909;42.680;26.324;2022-09-30T13:22:42;98478.78;;;27.99;39.04
9740;BME280;4909;42.680;26.324;2022-09-30T13:25:13;98480.97;;;28.04;39.52
9740;BME280;4909;42.680;26.324;2022-09-30T13:27:42;98480.78;;;28.05;39.73
9740;BME280;4909;42.680;26.324;2022-09-30T13:30:39;98479.94;;;28.05;39.79
9740;BME280;4909;42.680;26.324;2022-09-30T13:33:28;98474.00;;;28.01;39.64
9740;BME280;4909;42.680;26.324;2022-09-30T13:35:58;98471.91;;;28.12;38.90
9740;BME280;4909;42.680;26.324;2022-09-30T13:38:34;98486.22;;;28.14;39.04
9740;BME280;4909;42.680;26.324;2022-09-30T13:41:05;98481.81;;;28.04;39.18
9740;BME280;4909;42.680;26.324;2022-09-30T13:43:38;98486.66;;;27.94;40.37
9740;BME280;4909;42.680;26.324;2022-09-30T13:46:13;98489.16;;;28.04;39.50
9740;BME280;4909;42.680;26.324;2022-09-30T13:48:48;98487.19;;;27.98;40.16
9740;BME280;4909;42.680;26.324;2022-09-30T13:51:20;98497.81;;;27.85;40.86
9740;BME280;4909;42.680;26.324;2022-09-30T13:53:50;98481.13;;;27.57;41.04
9740;BME280;4909;42.680;26.324;2022-09-30T13:56:21;98498.06;;;27.75;40.68
9740;BME280;4909;42.680;26.324;2022-09-30T13:59:05;98490.63;;;27.92;39.85
9740;BME280;4909;42.680;26.324;2022-09-30T14:01:49;98494.13;;;28.00;40.52
9740;BME280;4909;42.680;26.324;2022-09-30T14:04:42;98500.44;;;28.01;39.89
9740;BME280;4909;42.680;26.324;2022-09-30T14:07:18;98495.06;;;27.93;40.35